Time;durP1;ratioP1;P1;durP2;ratioP2;P2;SDS_P1;SDS_P2;PMS_P1;PMS_P2;Temp;Humidity;BMP_temperature;BMP_pressure;BME280_temperature;BME280_humidity;BME280_pressure;Samples;Min_cycle;Max_cycle;Signal;HPM_P1;HPM_P2
2021/10/01 00:00:01;;;;;;;29.75;14.55;;;;;;;2.25;100.00;101806.86;1753443;81;21079;-73
2021/10/01 00:02:30;;;;;;;31.15;14.90;;;;;;;2.22;100.00;101808.52;1777269;80;21006;-74
2021/10/01 00:04:57;;;;;;;28.20;15.35;;;;;;;2.22;100.00;101808.52;1784717;80;21589;-74
2021/10/01 00:07:23;;;;;;;22.73;12.47;;;;;;;2.21;100.00;101808.95;1784608;80;21020;-77
2021/10/01 00:09:50;;;;;;;33.05;14.90;;;;;;;2.20;100.00;101809.77;1784854;80;21072;-74
2021/10/01 00:12:17;;;;;;;27.07;11.85;;;;;;;2.19;100.00;101806.73;1784454;80;21212;-75
2021/10/01 00:14:44;;;;;;;19.48;11.28;;;;;;;2.22;100.00;101803.33;1784811;80;21098;-74
2021/10/01 00:17:12;;;;;;;25.05;13.22;;;;;;;2.19;100.00;101801.53;1784340;80;21532;-75
2021/10/01 00:19:39;;;;;;;28.12;13.78;;;;;;;2.16;100.00;101798.84;1784904;80;20997;-75
2021/10/01 00:22:06;;;;;;;30.45;14.60;;;;;;;2.12;100.00;101795.73;1784624;80;21422;-75
2021/10/01 00:24:33;;;;;;;25.15;14.20;;;;;;;2.08;100.00;101792.59;1784941;80;20989;-75
2021/10/01 00:27:01;;;;;;;24.80;12.60;;;;;;;2.05;100.00;101797.73;1784543;80;21125;-76
2021/10/01 00:29:29;;;;;;;30.35;15.83;;;;;;;1.99;100.00;101800.16;1784775;80;21619;-76
2021/10/01 00:31:57;;;;;;;34.63;16.05;;;;;;;1.98;100.00;101795.79;1784510;80;21084;-77
2021/10/01 00:34:23;;;;;;;32.90;17.00;;;;;;;1.96;100.00;101794.48;1784569;80;21037;-75
2021/10/01 00:36:50;;;;;;;30.77;17.00;;;;;;;1.94;100.00;101790.95;1784314;80;21076;-75
2021/10/01 00:39:17;;;;;;;33.25;17.07;;;;;;;1.94;100.00;101790.95;1784552;80;21455;-75
2021/10/01 00:41:44;;;;;;;33.88;16.00;;;;;;;1.92;100.00;101789.16;1784322;80;21065;-74
2021/10/01 00:44:11;;;;;;;29.85;14.85;;;;;;;1.90;100.00;101790.41;1779627;80;21092;-75
2021/10/01 00:46:38;;;;;;;32.73;15.72;;;;;;;1.84;100.00;101789.86;1778565;80;21627;-74
2021/10/01 00:49:04;;;;;;;30.25;16.35;;;;;;;1.84;100.00;101789.86;1779325;80;21072;-74
2021/10/01 00:51:34;;;;;;;30.23;15.50;;;;;;;1.82;100.00;101788.06;1778738;80;21990;-73
2021/10/01 00:54:01;;;;;;;30.88;16.10;;;;;;;1.82;100.00;101788.06;1778801;80;21591;-73
2021/10/01 00:56:29;;;;;;;24.82;13.10;;;;;;;1.79;100.00;101786.23;1748738;80;21511;-75
2021/10/01 00:58:56;;;;;;;25.48;12.58;;;;;;;1.74;100.00;101783.95;1748627;80;21080;-75
2021/10/01 01:01:22;;;;;;;29.10;14.45;;;;;;;1.73;100.00;101782.20;1778516;80;20992;-75
2021/10/01 01:03:59;;;;;;;25.85;12.68;;;;;;;1.73;100.00;101782.20;1778874;80;21101;-75
2021/10/01 01:06:42;;;;;;;34.15;16.27;;;;;;;1.70;100.00;101774.31;1778482;80;21143;-76
2021/10/01 01:09:52;;;;;;;35.13;16.57;;;;;;;1.70;100.00;101782.10;1778613;80;21012;-74
2021/10/01 01:12:43;;;;;;;33.70;17.37;;;;;;;1.69;100.00;101777.77;1748433;80;21044;-75
2021/10/01 01:15:30;;;;;;;35.43;17.80;;;;;;;1.63;100.00;101775.00;1707900;80;21024;-74
2021/10/01 01:18:16;;;;;;;37.78;17.17;;;;;;;1.63;100.00;101775.00;1778362;80;21465;-75
2021/10/01 01:20:53;;;;;;;35.13;18.17;;;;;;;1.58;100.00;101777.91;1778512;80;21068;-76
2021/10/01 01:24:05;;;;;;;34.45;17.85;;;;;;;1.58;100.00;101777.91;1778561;80;21020;-75
2021/10/01 01:27:11;;;;;;;36.48;18.40;;;;;;;1.51;100.00;101775.98;1778360;80;21559;-76
2021/10/01 01:29:46;;;;;;;32.08;18.07;;;;;;;1.44;100.00;101769.33;1752538;80;21025;-77
2021/10/01 01:32:20;;;;;;;35.70;18.35;;;;;;;1.44;100.00;101769.33;1747603;80;21500;-79
2021/10/01 01:34:50;;;;;;;35.58;16.48;;;;;;;1.44;100.00;101780.14;1778774;80;21185;-77
2021/10/01 01:37:27;;;;;;;37.67;19.62;;;;;;;1.41;100.00;101780.94;1778410;80;20989;-77
2021/10/01 01:39:54;;;;;;;38.40;18.90;;;;;;;1.40;100.00;101779.59;1778303;80;21057;-76
2021/10/01 01:42:20;;;;;;;40.40;18.50;;;;;;;1.38;100.00;101779.56;1778543;80;21388;-76
2021/10/01 01:44:47;;;;;;;40.08;19.45;;;;;;;1.35;100.00;101779.89;1778632;80;21572;-75
2021/10/01 01:47:14;;;;;;;35.33;18.07;;;;;;;1.34;100.00;101777.72;1778648;80;21009;-76
2021/10/01 01:49:44;;;;;;;45.67;19.73;;;;;;;1.34;100.00;101777.72;1778777;80;21033;-76
2021/10/01 01:52:10;;;;;;;38.38;19.90;;;;;;;1.33;100.00;101780.27;1778893;80;21026;-77
2021/10/01 01:54:37;;;;;;;33.78;18.92;;;;;;;1.32;100.00;101780.69;1779254;80;21017;-77
2021/10/01 01:57:04;;;;;;;34.70;18.02;;;;;;;1.31;100.00;101782.84;1780303;80;21414;-75
2021/10/01 01:59:31;;;;;;;41.48;18.65;;;;;;;1.30;100.00;101779.77;1748894;80;20949;-76
2021/10/01 02:01:59;;;;;;;27.50;14.98;;;;;;;1.28;100.00;101786.63;1779029;80;21061;-76
2021/10/01 02:04:27;;;;;;;28.92;16.95;;;;;;;1.28;100.00;101785.33;1778668;80;21273;-77
2021/10/01 02:06:54;;;;;;;25.97;14.80;;;;;;;1.30;100.00;101787.55;1779121;80;21046;-76
2021/10/01 02:09:22;;;;;;;31.73;17.98;;;;;;;1.29;100.00;101784.51;1778657;80;21953;-74
2021/10/01 02:11:50;;;;;;;38.38;18.35;;;;;;;1.28;100.00;101784.45;1778457;80;21073;-76
2021/10/01 02:14:20;;;;;;;31.40;18.75;;;;;;;1.21;100.00;101784.27;1778333;80;21651;-76
2021/10/01 02:16:49;;;;;;;37.08;18.77;;;;;;;1.17;100.00;101785.45;1748536;80;20997;-77
2021/10/01 02:19:18;;;;;;;32.48;17.35;;;;;;;1.16;100.00;101791.48;1778592;80;21049;-75
2021/10/01 02:21:45;;;;;;;41.30;18.85;;;;;;;1.13;100.00;101782.30;1778462;80;22100;-78
2021/10/01 02:24:12;;;;;;;36.58;18.80;;;;;;;1.11;100.00;101787.89;1748033;80;21020;-77
2021/10/01 02:26:46;;;;;;;40.12;19.73;;;;;;;1.09;100.00;101791.73;1778676;80;20989;-76
2021/10/01 02:29:25;;;;;;;39.38;19.07;;;;;;;1.07;100.00;101788.20;1777996;80;21382;-75
2021/10/01 02:32:14;;;;;;;38.35;19.90;;;;;;;1.05;100.00;101790.75;1778844;80;21076;-76
2021/10/01 02:34:45;;;;;;;42.65;19.07;;;;;;;1.05;100.00;101792.05;1747934;82;21551;-79
2021/10/01 02:37:14;;;;;;;39.38;19.48;;;;;;;1.02;100.00;101790.67;1748349;82;21064;-79
2021/10/01 02:39:44;;;;;;;33.85;16.25;;;;;;;0.99;100.00;101793.19;1751034;82;20990;-78
2021/10/01 02:42:11;;;;;;;37.20;16.23;;;;;;;0.96;100.00;101795.67;1750497;82;21615;-78
2021/10/01 02:44:40;;;;;;;26.07;12.85;;;;;;;0.93;100.00;101793.00;1753313;81;21005;-78
2021/10/01 02:47:08;;;;;;;36.42;14.87;;;;;;;0.93;100.00;101795.59;1754339;81;21123;-78
2021/10/01 02:49:36;;;;;;;40.85;20.15;;;;;;;0.95;100.00;101796.52;1753544;81;20977;-76
2021/10/01 02:52:41;;;;;;;43.30;20.43;;;;;;;0.95;100.00;101799.12;1726254;81;21555;-77
2021/10/01 02:55:26;;;;;;;42.25;19.20;;;;;;;0.94;100.00;101797.34;1751846;81;21013;-79
2021/10/01 02:58:09;;;;;;;36.05;17.75;;;;;;;0.91;100.00;101799.86;1783661;80;21072;-78
2021/10/01 03:00:35;;;;;;;27.70;13.48;;;;;;;0.88;100.00;101802.38;1768473;80;21513;-76
2021/10/01 03:03:13;;;;;;;39.40;19.92;;;;;;;0.87;100.00;101812.27;1753314;80;21613;-77
2021/10/01 03:05:41;;;;;;;31.27;12.50;;;;;;;0.87;100.00;101803.19;1735080;81;21553;-75
2021/10/01 03:08:10;;;;;;;36.83;18.07;;;;;;;0.85;100.00;101808.74;1753156;81;21055;-75
2021/10/01 03:10:37;;;;;;;36.35;19.85;;;;;;;0.83;100.00;101807.42;1769109;80;21021;-75
2021/10/01 03:13:06;;;;;;;37.13;19.60;;;;;;;0.83;100.00;101809.14;1784675;80;21535;-75
2021/10/01 03:15:35;;;;;;;41.60;19.40;;;;;;;0.82;100.00;101808.66;1784699;80;21536;-74
2021/10/01 03:18:02;;;;;;;41.77;19.25;;;;;;;0.80;100.00;101805.14;1784663;80;21021;-75
2021/10/01 03:20:29;;;;;;;40.07;19.00;;;;;;;0.78;100.00;101806.41;1784834;80;21036;-75
2021/10/01 03:22:55;;;;;;;42.48;19.55;;;;;;;0.77;100.00;101810.25;1777350;80;21088;-82
2021/10/01 03:25:22;;;;;;;40.10;20.97;;;;;;;0.74;100.00;101810.16;1776036;80;21119;-80
2021/10/01 03:27:49;;;;;;;39.20;20.92;;;;;;;0.74;100.00;101810.16;1770604;80;20997;-78
2021/10/01 03:30:17;;;;;;;37.73;19.37;;;;;;;0.71;100.00;101808.75;1772720;80;21578;-79
2021/10/01 03:32:48;;;;;;;41.88;19.45;;;;;;;0.69;100.00;101807.83;1766592;80;21097;-78
2021/10/01 03:35:15;;;;;;;26.93;13.18;;;;;;;0.65;100.00;101806.87;1775786;80;21069;-76
2021/10/01 03:37:43;;;;;;;43.65;20.25;;;;;;;0.65;100.00;101813.78;1776242;80;21804;-79
2021/10/01 03:40:12;;;;;;;36.17;16.73;;;;;;;0.62;100.00;101815.83;1763175;80;21044;-79
2021/10/01 03:42:39;;;;;;;28.27;13.90;;;;;;;0.59;100.00;101810.14;1768072;80;21048;-82
2021/10/01 03:45:09;;;;;;;29.95;12.82;;;;;;;0.59;100.00;101812.73;1767419;80;21076;-77
2021/10/01 03:47:35;;;;;;;30.77;14.87;;;;;;;0.60;100.00;101809.33;1770219;80;21053;-81
2021/10/01 03:50:03;;;;;;;34.38;20.17;;;;;;;0.61;100.00;101812.37;1675765;83;21144;-79
2021/10/01 03:52:33;;;;;;;47.03;19.62;;;;;;;0.63;100.00;101816.31;1703625;83;21094;-81
2021/10/01 03:55:03;;;;;;;38.40;19.05;;;;;;;0.60;100.00;101820.13;1710690;82;21106;-79
2021/10/01 03:57:28;;;;;;;39.35;19.27;;;;;;;0.60;100.00;101822.71;1709555;83;21108;-76
2021/10/01 03:59:55;;;;;;;39.05;20.23;;;;;;;0.60;100.00;101823.59;1716540;83;21819;-79
2021/10/01 04:02:21;;;;;;;35.25;19.30;;;;;;;0.60;100.00;101827.48;1719521;83;21487;-78
2021/10/01 04:04:48;;;;;;;35.90;18.87;;;;;;;0.60;100.00;101831.78;1714013;83;21034;-77
2021/10/01 04:07:15;;;;;;;39.03;19.65;;;;;;;0.60;100.00;101834.38;1713282;83;21022;-79
2021/10/01 04:09:43;;;;;;;39.78;19.90;;;;;;;0.61;100.00;101834.41;1712733;82;21069;-75
2021/10/01 04:12:11;;;;;;;39.48;19.87;;;;;;;0.62;100.00;101832.30;1714344;83;21556;-77
2021/10/01 04:14:37;;;;;;;49.55;19.77;;;;;;;0.62;100.00;101836.19;1704077;83;21543;-76
2021/10/01 04:17:04;;;;;;;42.78;17.32;;;;;;;0.63;100.00;101839.22;1705622;83;21007;-84
2021/10/01 04:19:34;;;;;;;39.53;20.02;;;;;;;0.65;100.00;101831.93;1703056;79;21528;-82
2021/10/01 04:22:00;;;;;;;26.48;13.40;;;;;;;0.67;100.00;101831.53;1714863;83;21662;-77
2021/10/01 04:24:29;;;;;;;32.88;14.00;;;;;;;0.68;100.00;101832.02;1700664;84;21034;-77
2021/10/01 04:26:58;;;;;;;41.42;20.30;;;;;;;0.72;100.00;101833.87;1700945;83;21202;-81
2021/10/01 04:29:24;;;;;;;43.05;17.37;;;;;;;0.77;100.00;101828.41;1702300;83;21085;-79
2021/10/01 04:31:51;;;;;;;39.63;20.70;;;;;;;0.81;100.00;101832.86;1701684;83;21093;-78
2021/10/01 04:34:18;;;;;;;41.20;19.45;;;;;;;0.84;100.00;101831.64;1711364;83;21041;-76
2021/10/01 04:36:45;;;;;;;32.90;15.68;;;;;;;0.88;100.00;101832.63;1728982;82;21599;-79
2021/10/01 04:39:13;;;;;;;49.40;18.98;;;;;;;0.92;100.00;101835.36;1716983;83;21547;-77
2021/10/01 04:41:41;;;;;;;38.88;19.02;;;;;;;0.97;100.00;101837.66;1729557;82;21124;-79
2021/10/01 04:44:09;;;;;;;47.38;19.27;;;;;;;1.04;100.00;101835.70;1720005;82;21055;-78
2021/10/01 04:46:40;;;;;;;38.50;20.02;;;;;;;1.10;100.00;101837.58;1718681;83;21588;-78
2021/10/01 04:49:06;;;;;;;39.58;19.05;;;;;;;1.18;100.00;101836.53;1716662;82;21703;-78
2021/10/01 04:51:35;;;;;;;46.70;20.85;;;;;;;1.24;100.00;101840.58;1713334;82;21043;-77
2021/10/01 04:54:02;;;;;;;45.05;21.20;;;;;;;1.35;100.00;101843.06;1693118;83;21108;-77
2021/10/01 04:56:30;;;;;;;43.58;20.65;;;;;;;1.85;100.00;101846.16;1701461;83;21129;-77
2021/10/01 04:58:56;;;;;;;42.38;19.45;;;;;;;2.59;100.00;101847.97;1691226;83;21691;-77
2021/10/01 05:01:41;;;;;;;146.80;86.53;;;;;;;3.47;100.00;101849.40;1705590;82;21531;-78
2021/10/01 05:04:26;;;;;;;47.43;24.82;;;;;;;4.45;100.00;101846.79;1702370;82;21157;-77
2021/10/01 05:07:00;;;;;;;44.80;19.85;;;;;;;5.43;100.00;101842.91;1692299;83;21232;-79
2021/10/01 05:09:46;;;;;;;39.08;17.48;;;;;;;6.28;100.00;101842.90;1722918;82;21049;-77
2021/10/01 05:12:32;;;;;;;47.05;17.62;;;;;;;7.06;100.00;101846.87;1704180;83;21099;-78
2021/10/01 05:15:19;;;;;;;37.75;16.80;;;;;;;7.86;100.00;101844.52;1715761;83;21101;-77
2021/10/01 05:18:04;;;;;;;50.67;17.12;;;;;;;8.51;96.68;101846.33;1709879;83;21151;-77
2021/10/01 05:20:35;;;;;;;39.73;16.07;;;;;;;9.14;93.51;101840.05;1674458;83;21346;-78
2021/10/01 05:23:05;;;;;;;52.43;18.02;;;;;;;9.80;89.97;101837.95;1702995;83;21070;-77
2021/10/01 05:25:32;;;;;;;34.75;17.60;;;;;;;10.38;85.94;101844.56;1692189;83;21061;-79
2021/10/01 05:27:59;;;;;;;42.25;17.62;;;;;;;10.96;80.84;101845.73;1704613;83;22103;-80
2021/10/01 05:30:27;;;;;;;37.80;18.62;;;;;;;11.47;77.95;101845.97;1702809;83;21123;-80
2021/10/01 05:32:53;;;;;;;35.58;18.50;;;;;;;12.01;75.56;101846.98;1711995;83;21609;-78
2021/10/01 05:35:20;;;;;;;52.15;19.17;;;;;;;12.50;72.88;101846.20;1709246;83;21104;-79
2021/10/01 05:37:46;;;;;;;37.60;18.15;;;;;;;13.03;70.44;101840.34;1707481;83;21517;-78
2021/10/01 05:40:13;;;;;;;31.10;17.55;;;;;;;13.50;68.11;101845.11;1698330;83;21014;-79
2021/10/01 05:42:41;;;;;;;39.08;18.37;;;;;;;13.94;66.60;101841.94;1713454;82;21066;-80
2021/10/01 05:45:11;;;;;;;34.43;17.87;;;;;;;14.53;64.09;101849.75;1720460;82;21059;-80
2021/10/01 05:47:42;;;;;;;46.95;18.32;;;;;;;15.01;62.26;101838.75;1697522;84;20964;-78
2021/10/01 05:50:30;;;;;;;35.20;17.85;;;;;;;15.53;59.90;101847.85;1704256;84;21062;-79
2021/10/01 05:53:35;;;;;;;36.30;17.73;;;;;;;15.89;56.48;101841.00;1709043;83;20971;-77
2021/10/01 05:56:01;;;;;;;33.45;16.93;;;;;;;16.23;54.36;101846.55;1734906;82;21361;-79
2021/10/01 05:58:45;;;;;;;34.88;16.42;;;;;;;16.55;52.04;101842.80;1705597;82;21061;-79
2021/10/01 06:01:11;;;;;;;47.27;19.25;;;;;;;16.77;48.44;101844.22;1743622;82;20983;-78
2021/10/01 06:03:38;;;;;;;44.73;17.27;;;;;;;17.05;47.36;101843.29;1742199;82;21179;-80
2021/10/01 06:06:04;;;;;;;26.17;16.15;;;;;;;17.11;44.98;101847.03;1716925;82;21058;-79
2021/10/01 06:08:31;;;;;;;31.42;17.30;;;;;;;17.17;44.78;101847.67;1714133;82;21452;-79
2021/10/01 06:10:57;;;;;;;42.27;17.75;;;;;;;17.44;42.74;101852.00;1716116;82;21518;-79
2021/10/01 06:13:25;;;;;;;45.25;17.35;;;;;;;17.46;40.89;101851.05;1725897;82;21609;-80
2021/10/01 06:15:52;;;;;;;53.17;18.42;;;;;;;17.39;42.38;101850.41;1715514;82;21053;-76
2021/10/01 06:18:18;;;;;;;50.92;17.42;;;;;;;17.58;41.03;101852.36;1713725;82;21049;-78
2021/10/01 06:20:46;;;;;;;46.92;16.35;;;;;;;17.80;41.44;101849.70;1710667;82;21211;-79
2021/10/01 06:23:12;;;;;;;35.48;16.55;;;;;;;18.05;41.19;101846.95;1710425;82;21059;-81
2021/10/01 06:25:39;;;;;;;33.60;15.78;;;;;;;18.33;39.38;101853.80;1702022;83;21075;-80
2021/10/01 06:28:05;;;;;;;26.60;15.08;;;;;;;18.23;38.24;101856.86;1693265;83;21557;-78
2021/10/01 06:30:32;;;;;;;25.88;13.65;;;;;;;18.03;37.85;101852.80;1725642;82;21132;-78
2021/10/01 06:32:58;;;;;;;31.30;15.63;;;;;;;17.85;39.39;101853.08;1724602;82;21539;-79
2021/10/01 06:35:26;;;;;;;26.57;15.03;;;;;;;18.08;39.47;101844.15;1735270;82;21069;-79
2021/10/01 06:37:53;;;;;;;25.27;14.23;;;;;;;18.31;38.97;101850.33;1736386;82;21055;-80
2021/10/01 06:40:19;;;;;;;26.70;14.85;;;;;;;18.61;39.62;101850.37;1716775;82;21062;-79
2021/10/01 06:42:49;;;;;;;37.20;15.65;;;;;;;19.05;37.98;101838.22;1723899;82;21098;-77
2021/10/01 06:45:21;;;;;;;26.00;14.10;;;;;;;19.24;36.50;101840.05;1709267;82;21008;-79
2021/10/01 06:47:53;;;;;;;26.95;14.73;;;;;;;19.44;37.01;101843.99;1701487;83;21003;-78
2021/10/01 07:45:36;;;;;;;25.40;13.55;;;;;;;23.33;30.25;101828.47;1770900;80;21108;-75
2021/10/01 08:20:47;;;;;;;10.72;6.20;;;;;;;24.85;26.49;101819.20;1745254;81;21319;-74
2021/10/01 08:23:14;;;;;;;8.43;5.62;;;;;;;24.46;25.27;101832.24;1748454;81;21073;-75
2021/10/01 08:25:40;;;;;;;11.18;6.78;;;;;;;24.14;26.01;101826.36;1739593;81;21512;-74
2021/10/01 08:28:08;;;;;;;13.50;6.10;;;;;;;24.16;25.59;101825.78;1748568;82;21571;-75
2021/10/01 08:30:38;;;;;;;12.58;6.12;;;;;;;24.25;25.94;101827.84;1764473;80;21088;-76
2021/10/01 08:33:04;;;;;;;9.15;5.80;;;;;;;24.50;24.87;101813.56;1748066;82;21163;-76
2021/10/01 08:35:32;;;;;;;11.18;6.58;;;;;;;24.60;25.12;101817.86;1767231;80;20998;-75
2021/10/01 08:37:59;;;;;;;10.65;6.37;;;;;;;24.60;25.14;101811.12;1686406;83;21112;-74
2021/10/01 08:40:25;;;;;;;13.48;5.65;;;;;;;24.65;24.60;101811.66;1695320;83;21612;-75
2021/10/01 08:42:53;;;;;;;10.82;6.03;;;;;;;24.65;24.04;101808.47;1692983;83;21117;-76
2021/10/01 08:45:22;;;;;;;7.70;5.75;;;;;;;24.78;24.14;101804.91;1700634;80;73675;-83
2021/10/01 08:47:48;;;;;;;8.15;5.50;;;;;;;24.63;24.11;101810.41;1712514;82;21079;-84
2021/10/01 08:50:19;;;;;;;13.85;5.97;;;;;;;24.59;24.68;101801.30;1710985;83;21056;-85
2021/10/01 08:52:47;;;;;;;11.60;5.47;;;;;;;24.73;24.32;101804.38;1721932;82;21092;-84
2021/10/01 08:55:14;;;;;;;6.58;4.58;;;;;;;24.62;24.08;101802.45;1679845;83;21042;-84
2021/10/01 08:57:44;;;;;;;10.03;5.80;;;;;;;24.55;25.07;101789.89;1677958;85;22305;-84
2021/10/01 09:00:16;;;;;;;7.87;4.90;;;;;;;24.98;24.93;101802.16;1652219;83;21058;-85
2021/10/01 09:02:42;;;;;;;5.90;4.72;;;;;;;25.28;23.12;101799.98;1665323;85;21074;-84
2021/10/01 09:05:09;;;;;;;7.83;4.17;;;;;;;25.18;22.30;101796.22;1696826;83;21343;-84
2021/10/01 09:07:35;;;;;;;7.80;4.45;;;;;;;24.86;22.55;101796.66;1700825;83;21048;-95
2021/10/01 09:10:13;;;;;;;5.22;4.40;;;;;;;24.79;22.62;101804.80;1691616;83;21045;-86
2021/10/01 09:12:42;;;;;;;7.17;4.37;;;;;;;24.51;22.97;101802.34;1703483;83;21339;-84
2021/10/01 09:15:09;;;;;;;10.75;4.67;;;;;;;24.25;22.54;101814.39;1694482;83;21693;-84
2021/10/01 09:17:38;;;;;;;8.18;5.30;;;;;;;23.85;23.25;101809.83;1694846;84;21056;-85
2021/10/01 09:20:09;;;;;;;7.45;4.67;;;;;;;23.63;23.66;101817.09;1693281;84;21136;-84
2021/10/01 09:22:37;;;;;;;9.70;4.97;;;;;;;23.68;23.50;101803.83;1694075;84;21094;-85
2021/10/01 09:25:24;;;;;;;9.90;4.72;;;;;;;23.91;24.05;101801.85;1694754;84;21073;-86
2021/10/01 09:28:02;;;;;;;9.13;4.87;;;;;;;24.01;23.61;101806.13;1698020;83;21105;-85
2021/10/01 09:30:28;;;;;;;10.53;5.22;;;;;;;24.05;23.84;101796.40;1699204;83;21181;-84
2021/10/01 09:33:11;;;;;;;8.08;4.70;;;;;;;24.01;24.19;101796.22;1693909;83;21124;-83
2021/10/01 09:35:42;;;;;;;9.03;5.50;;;;;;;23.89;24.54;101802.44;1694349;84;21299;-84
2021/10/01 09:38:15;;;;;;;7.97;5.42;;;;;;;24.00;23.58;101793.66;1702071;83;21092;-86
2021/10/01 09:40:43;;;;;;;20.65;6.30;;;;;;;23.76;24.37;101790.75;1724809;82;21072;-84
2021/10/01 09:43:29;;;;;;;12.05;5.90;;;;;;;23.72;24.61;101795.46;1700235;82;21084;-84
2021/10/01 09:46:07;;;;;;;9.15;5.20;;;;;;;23.82;23.91;101784.98;1670934;83;21069;-84
2021/10/01 09:48:39;;;;;;;16.00;6.17;;;;;;;23.78;23.92;101785.65;1665539;84;21117;-85
2021/10/01 09:51:17;;;;;;;9.20;5.40;;;;;;;24.12;23.96;101782.05;1666804;85;21130;-85
2021/10/01 09:53:48;;;;;;;6.55;4.15;;;;;;;24.31;23.89;101784.33;1665765;86;21567;-84
2021/10/01 09:56:27;;;;;;;6.95;4.80;;;;;;;24.08;23.83;101784.06;1641779;86;21559;-85
2021/10/01 09:59:15;;;;;;;5.67;4.17;;;;;;;23.64;24.06;101777.61;1665643;86;21584;-85
2021/10/01 10:02:13;;;;;;;11.05;4.95;;;;;;;23.61;24.17;101777.33;1665861;86;21155;-86
2021/10/01 10:04:54;;;;;;;6.05;4.08;;;;;;;23.61;23.63;101789.44;1666322;85;22233;-85
2021/10/01 10:07:26;;;;;;;6.62;4.60;;;;;;;23.43;23.83;101777.20;1666714;86;21085;-82
2021/10/01 10:10:08;;;;;;;9.88;4.83;;;;;;;23.64;24.57;101771.74;1667837;85;21005;-83
2021/10/01 10:12:44;;;;;;;5.60;4.33;;;;;;;24.11;24.44;101767.34;1668081;86;21215;-84
2021/10/01 10:15:16;;;;;;;6.30;4.60;;;;;;;24.19;24.18;101763.65;1664136;86;21902;-88
2021/10/01 10:17:47;;;;;;;6.80;4.75;;;;;;;24.25;23.42;101760.55;1665940;85;21572;-85
2021/10/01 10:20:17;;;;;;;10.15;4.70;;;;;;;24.20;23.52;101759.98;1665606;85;21089;-84
2021/10/01 10:22:46;;;;;;;5.35;4.33;;;;;;;23.90;23.89;101767.83;1665761;85;21034;-86
2021/10/01 10:25:12;;;;;;;7.70;4.28;;;;;;;24.03;23.58;101770.06;1665862;86;21757;-84
2021/10/01 10:27:39;;;;;;;8.23;3.95;;;;;;;23.98;22.65;101760.11;1642648;86;21195;-86
2021/10/01 10:30:08;;;;;;;6.75;4.08;;;;;;;24.05;22.71;101754.69;1666041;85;21079;-85
2021/10/01 10:32:35;;;;;;;6.53;4.47;;;;;;;24.05;22.74;101759.21;1621473;86;21635;-83
2021/10/01 10:35:06;;;;;;;7.20;4.42;;;;;;;23.98;23.53;101756.07;1666049;85;21036;-83
2021/10/01 10:37:43;;;;;;;9.75;4.50;;;;;;;24.23;22.95;101746.33;1665878;86;21392;-84
2021/10/01 10:40:13;;;;;;;8.30;3.80;;;;;;;24.17;22.68;101750.28;1665639;86;21220;-83
2021/10/01 10:42:42;;;;;;;8.85;4.35;;;;;;;24.04;23.47;101747.59;1664420;85;21062;-85
2021/10/01 10:45:24;;;;;;;6.92;4.00;;;;;;;23.70;23.47;101757.53;1674870;84;21052;-87
2021/10/01 10:48:07;;;;;;;4.67;3.40;;;;;;;23.47;24.13;101750.50;1695630;84;21108;-84
2021/10/01 10:50:37;;;;;;;9.15;3.80;;;;;;;23.64;23.12;101750.23;1695129;82;21100;-85
2021/10/01 10:53:16;;;;;;;7.00;3.58;;;;;;;23.62;22.67;101749.46;1694622;84;21755;-84
2021/10/01 10:55:57;;;;;;;8.15;3.62;;;;;;;23.40;22.29;101750.52;1716406;83;21060;-84
2021/10/01 11:01:20;;;;;;;11.12;3.62;;;;;;;22.68;23.45;101735.79;1798265;79;22777;-78
2021/10/01 11:03:45;;;;;;;6.22;3.72;;;;;;;22.52;23.71;101735.91;1751982;80;20993;-80
2021/10/01 11:06:14;;;;;;;7.05;4.03;;;;;;;22.14;23.76;101732.84;1780747;80;21850;-79
2021/10/01 11:08:51;;;;;;;6.62;3.85;;;;;;;21.84;24.74;101733.71;1757822;80;21608;-80
2021/10/01 11:11:37;;;;;;;8.43;4.08;;;;;;;21.95;24.67;101727.23;1748737;81;21116;-84
2021/10/01 11:14:19;;;;;;;5.95;4.20;;;;;;;21.68;25.13;101730.20;1707686;83;21574;-86
2021/10/01 11:16:56;;;;;;;7.53;4.30;;;;;;;21.78;24.91;101718.83;1694992;84;21052;-86
2021/10/01 11:19:40;;;;;;;9.10;3.90;;;;;;;21.99;25.07;101718.06;1693662;84;21125;-83
2021/10/01 11:22:38;;;;;;;5.95;3.98;;;;;;;22.11;24.40;101714.22;1684039;84;20969;-86
2021/10/01 11:25:23;;;;;;;7.42;4.12;;;;;;;22.07;24.18;101715.39;1679911;84;21195;-84
2021/10/01 11:27:58;;;;;;;6.05;3.67;;;;;;;21.85;24.63;101719.33;1696197;83;21085;-85
2021/10/01 11:30:27;;;;;;;5.37;3.40;;;;;;;21.63;24.50;101721.58;1705073;82;21073;-82
2021/10/01 11:32:53;;;;;;;7.85;3.90;;;;;;;21.51;24.46;101714.63;1689939;84;21589;-84
2021/10/01 11:35:20;;;;;;;7.00;3.65;;;;;;;21.32;24.69;101715.25;1694883;84;21455;-87
2021/10/01 11:37:49;;;;;;;5.67;3.47;;;;;;;21.14;24.56;101704.64;1713489;83;21077;-87
2021/10/01 11:40:26;;;;;;;6.05;3.70;;;;;;;21.31;24.66;101705.50;1678165;84;21085;-85
2021/10/01 11:42:58;;;;;;;7.10;3.95;;;;;;;21.43;25.50;101712.00;1684798;83;21026;-87
2021/10/01 11:45:34;;;;;;;13.13;4.70;;;;;;;21.41;25.65;101706.72;1712469;83;21761;-84
2021/10/01 11:48:08;;;;;;;9.58;5.30;;;;;;;21.02;25.66;101707.98;1689891;84;21137;-86
2021/10/01 11:50:44;;;;;;;6.60;4.67;;;;;;;20.68;26.12;101695.16;1688115;84;21096;-85
2021/10/01 11:53:27;;;;;;;6.85;4.28;;;;;;;20.59;26.25;101696.98;1679965;84;21093;-84
2021/10/01 11:56:03;;;;;;;8.55;4.10;;;;;;;20.47;26.14;101692.25;1682597;85;21073;-79
2021/10/01 11:58:34;;;;;;;7.62;4.80;;;;;;;20.52;26.40;101695.53;1687940;84;22006;-79
2021/10/01 12:01:15;;;;;;;9.18;4.47;;;;;;;20.63;26.76;101690.50;1660305;85;21071;-81
2021/10/01 12:03:51;;;;;;;6.37;3.80;;;;;;;20.65;27.01;101687.75;1670162;85;21564;-80
2021/10/01 12:06:30;;;;;;;10.58;4.42;;;;;;;20.68;26.58;101684.89;1736488;82;21033;-80
2021/10/01 12:09:06;;;;;;;11.50;4.78;;;;;;;20.55;26.28;101686.02;1737667;82;21054;-82
2021/10/01 12:11:35;;;;;;;7.17;3.67;;;;;;;20.39;26.52;101685.13;1729325;82;21065;-79
2021/10/01 12:14:17;;;;;;;8.78;3.92;;;;;;;20.07;26.57;101689.02;1731724;81;21050;-81
2021/10/01 12:16:58;;;;;;;10.78;4.22;;;;;;;19.72;26.82;101678.33;1724966;82;21124;-81
2021/10/01 12:19:26;;;;;;;8.68;4.10;;;;;;;19.58;27.13;101679.44;1721481;82;21073;-80
2021/10/01 12:22:13;;;;;;;7.28;3.87;;;;;;;19.56;27.83;101680.02;1723913;82;21038;-81
2021/10/01 12:24:48;;;;;;;6.25;3.95;;;;;;;19.70;27.13;101679.73;1734208;82;21133;-81
2021/10/01 12:27:17;;;;;;;12.00;4.20;;;;;;;19.77;27.33;101675.42;1737539;81;21049;-80
2021/10/01 12:29:49;;;;;;;6.60;4.10;;;;;;;19.73;27.24;101681.86;1737259;81;22255;-80
2021/10/01 12:32:18;;;;;;;6.05;3.85;;;;;;;19.56;27.01;101678.69;1737715;82;21057;-80
2021/10/01 12:34:51;;;;;;;7.40;3.98;;;;;;;19.36;28.87;101671.17;1724654;82;21122;-81
2021/10/01 12:37:21;;;;;;;8.58;3.60;;;;;;;19.21;27.69;101675.92;1737164;82;21112;-81
2021/10/01 12:39:55;;;;;;;10.48;3.95;;;;;;;19.07;28.03;101672.14;1736972;81;21577;-80
2021/10/01 12:42:30;;;;;;;6.37;3.35;;;;;;;19.04;28.27;101665.59;1736477;82;21466;-79
2021/10/01 12:45:03;;;;;;;6.50;3.20;;;;;;;19.05;27.79;101663.81;1725178;82;21037;-80
2021/10/01 12:47:36;;;;;;;6.83;3.62;;;;;;;18.96;28.52;101661.11;1733606;82;21061;-80
2021/10/01 12:50:12;;;;;;;7.10;3.72;;;;;;;18.85;28.29;101664.75;1722285;82;21128;-83
2021/10/01 12:52:41;;;;;;;10.28;4.42;;;;;;;18.57;28.66;101653.14;1731520;81;21536;-80
2021/10/01 12:55:12;;;;;;;7.72;3.95;;;;;;;18.37;29.34;101654.05;1662053;85;21091;-80
2021/10/01 12:57:45;;;;;;;7.15;3.58;;;;;;;18.32;28.74;101656.06;1731907;82;21085;-80
2021/10/01 13:00:30;;;;;;;5.40;3.52;;;;;;;18.22;28.80;101663.14;1727351;82;21056;-81
2021/10/01 13:03:05;;;;;;;7.03;3.65;;;;;;;18.12;28.88;101661.80;1726806;82;21545;-79
2021/10/01 13:05:45;;;;;;;5.85;3.70;;;;;;;18.03;29.39;101655.06;1734424;81;21555;-79